createdAt,value
2023-04-23T00:00:49.174Z,96961.19
2023-04-23T00:03:19.474Z,96965.75
2023-04-23T00:05:47.614Z,96970.09
2023-04-23T00:08:17.996Z,96966.66
2023-04-23T00:10:45.963Z,96963.72
2023-04-23T00:13:13.936Z,96974.50
2023-04-23T00:15:41.685Z,96967.25
2023-04-23T00:18:09.197Z,96969.34
2023-04-23T00:20:36.932Z,96965.81
2023-04-23T00:23:04.424Z,96965.22
2023-04-23T00:25:32.183Z,96975.19
2023-04-23T00:27:59.754Z,96989.50
2023-04-23T00:30:27.340Z,96992.28
2023-04-23T00:32:55.342Z,96983.50
2023-04-23T00:35:23.376Z,96996.06
2023-04-23T00:37:50.938Z,96997.94
2023-04-23T00:40:18.618Z,96995.97
2023-04-23T00:42:46.282Z,97000.94
2023-04-23T00:45:13.974Z,97004.91
2023-04-23T00:47:41.817Z,97009.28
2023-04-23T00:50:09.819Z,97012.19
2023-04-23T00:52:39.118Z,97015.88
2023-04-23T00:55:08.455Z,97019.84
2023-04-23T00:57:37.941Z,97026.06
2023-04-23T01:00:07.445Z,97018.00
2023-04-23T01:02:37.370Z,97023.81
2023-04-23T01:05:07.671Z,97021.56
2023-04-23T01:07:36.296Z,97029.25
2023-04-23T01:10:05.238Z,97027.59
2023-04-23T01:12:33.954Z,97024.03
2023-04-23T01:15:02.135Z,97022.75
2023-04-23T01:17:29.805Z,97019.84
2023-04-23T01:19:57.417Z,97022.16
2023-04-23T01:22:25.279Z,97018.84
2023-04-23T01:24:53.175Z,97008.28
2023-04-23T01:27:22.249Z,97024.44
2023-04-23T01:29:49.948Z,97024.25
2023-04-23T01:32:19.474Z,97023.41
2023-04-23T01:34:48.150Z,97022.00
2023-04-23T01:37:17.338Z,97020.13
2023-04-23T01:39:44.981Z,97020.13
2023-04-23T01:42:12.673Z,97019.72
2023-04-23T01:44:40.803Z,97023.22
2023-04-23T01:47:08.514Z,97025.94
2023-04-23T01:49:36.325Z,97024.28
2023-04-23T01:52:04.140Z,97032.75
2023-04-23T01:54:31.665Z,97025.75
2023-04-23T01:56:59.256Z,97028.41
2023-04-23T01:59:27.198Z,97034.47
2023-04-23T02:01:54.765Z,97039.19
2023-04-23T02:04:23.037Z,97032.19
2023-04-23T02:06:52.494Z,97031.13
2023-04-23T02:09:20.137Z,97039.81
2023-04-23T02:11:47.842Z,97043.53
2023-04-23T02:14:17.365Z,97045.41
2023-04-23T02:16:45.470Z,97046.22
2023-04-23T02:19:15.351Z,97046.66
2023-04-23T02:21:43.520Z,97040.06
2023-04-23T02:24:11.700Z,97045.44
2023-04-23T02:26:39.233Z,97050.81
2023-04-23T02:29:06.742Z,97042.94
2023-04-23T02:31:34.353Z,97044.00
2023-04-23T02:34:01.843Z,97042.56
2023-04-23T02:36:31.054Z,97044.63
2023-04-23T02:38:58.553Z,97040.91
2023-04-23T02:41:26.073Z,97038.44
2023-04-23T02:43:53.572Z,97033.88
2023-04-23T02:46:21.393Z,97031.81
2023-04-23T02:48:49.054Z,97037.19
2023-04-23T02:51:16.678Z,97038.25
2023-04-23T02:53:44.176Z,97037.63
2023-04-23T02:56:11.676Z,97034.13
2023-04-23T02:58:39.265Z,97035.75
2023-04-23T03:01:07.158Z,97026.28
2023-04-23T03:03:34.957Z,97027.09
2023-04-23T03:06:06.598Z,97028.97
2023-04-23T03:08:34.314Z,97016.53
2023-04-23T03:11:01.806Z,97016.75
2023-04-23T03:13:29.543Z,97019.69
2023-04-23T03:15:57.919Z,97020.50
2023-04-23T03:18:27.014Z,97030.63
2023-04-23T03:20:55.648Z,97029.81
2023-04-23T03:23:24.642Z,97027.94
2023-04-23T03:25:52.201Z,97036.63
2023-04-23T03:28:19.996Z,97032.06
2023-04-23T03:30:47.708Z,97031.84
2023-04-23T03:33:15.314Z,97037.22
2023-04-23T03:35:42.983Z,97039.69
2023-04-23T03:38:15.591Z,97035.56
2023-04-23T03:40:43.318Z,97039.91
2023-04-23T03:43:12.219Z,97032.66
2023-04-23T03:46:02.709Z,97036.41
2023-04-23T03:48:33.175Z,97030.44
2023-04-23T03:51:05.587Z,97038.91
2023-04-23T03:53:58.885Z,97031.69
2023-04-23T03:56:29.000Z,97029.88
2023-04-23T03:59:28.908Z,97040.63
2023-04-23T04:01:59.846Z,97038.34
2023-04-23T04:04:28.320Z,97035.25
2023-04-23T04:06:57.714Z,97034.84
2023-04-23T04:09:29.431Z,97041.69
2023-04-23T04:12:01.856Z,97039.00
2023-04-23T04:14:29.631Z,97037.56
2023-04-23T04:16:57.213Z,97038.22
2023-04-23T04:19:24.941Z,97039.44
2023-04-23T04:21:52.433Z,97038.81
2023-04-23T04:24:19.916Z,97041.97
2023-04-23T04:26:47.632Z,97046.47
2023-04-23T04:29:15.178Z,97045.66
2023-04-23T04:31:42.794Z,97047.94
2023-04-23T04:34:10.491Z,97048.56
2023-04-23T04:36:37.992Z,97053.50
2023-04-23T04:39:05.564Z,97049.59
2023-04-23T04:41:33.454Z,97056.41
2023-04-23T04:44:00.944Z,97054.75
2023-04-23T04:46:29.435Z,97048.78
2023-04-23T04:48:57.035Z,97048.56
2023-04-23T04:51:24.554Z,97047.31
2023-04-23T04:53:52.080Z,97049.16
2023-04-23T04:56:19.543Z,97050.00
2023-04-23T04:58:47.186Z,97057.00
2023-04-23T05:01:15.887Z,97053.50
2023-04-23T05:03:43.723Z,97047.69
2023-04-23T05:06:11.357Z,97052.06
2023-04-23T05:08:38.831Z,97048.34
2023-04-23T05:11:06.439Z,97051.06
2023-04-23T05:13:33.956Z,97055.38
2023-04-23T05:16:01.561Z,97046.50
2023-04-23T05:18:29.564Z,97055.00
2023-04-23T05:20:57.082Z,97048.38
2023-04-23T05:23:24.652Z,97057.66
2023-04-23T05:25:55.770Z,97053.94
2023-04-23T05:28:23.280Z,97048.56
2023-04-23T05:30:51.832Z,97046.31
2023-04-23T05:33:19.389Z,97041.53
2023-04-23T05:35:46.856Z,97044.03
2023-04-23T05:38:14.376Z,97057.84
2023-04-23T05:40:41.952Z,97049.97
2023-04-23T05:43:09.655Z,97064.00
2023-04-23T05:45:37.223Z,97060.06
2023-04-23T05:48:04.819Z,97058.03
2023-04-23T05:53:35.899Z,97060.47
2023-04-23T05:56:03.749Z,97061.69
2023-04-23T05:58:31.226Z,97061.28
2023-04-23T06:00:58.772Z,97056.13
2023-04-23T06:03:26.941Z,97061.50
2023-04-23T06:05:54.827Z,97061.50
2023-04-23T06:08:24.542Z,97063.75
2023-04-23T06:10:52.701Z,97057.31
2023-04-23T06:13:20.744Z,97061.00
2023-04-23T06:15:48.249Z,97054.38
2023-04-23T06:18:15.856Z,97061.41
2023-04-23T06:20:43.473Z,97064.69
2023-04-23T06:23:12.716Z,97062.63
2023-04-23T06:25:40.493Z,97060.13
2023-04-23T06:28:07.968Z,97054.91
2023-04-23T06:30:44.129Z,97053.09
2023-04-23T06:33:13.127Z,97047.91
2023-04-23T06:35:40.679Z,97058.06
2023-04-23T06:38:08.154Z,97055.16
2023-04-23T06:40:35.776Z,97051.81
2023-04-23T06:43:05.267Z,97054.28
2023-04-23T06:45:56.247Z,97051.00
2023-04-23T06:48:23.734Z,97047.72
2023-04-23T06:50:51.361Z,97048.13
2023-04-23T06:53:18.920Z,97045.63
2023-04-23T06:55:46.428Z,97050.53
2023-04-23T06:58:14.887Z,97045.75
2023-04-23T07:00:43.515Z,97042.19
2023-04-23T07:03:11.876Z,97041.78
2023-04-23T07:05:39.397Z,97043.59
2023-04-23T07:08:06.953Z,97040.63
2023-04-23T07:10:34.456Z,97039.19
2023-04-23T07:13:02.096Z,97029.03
2023-04-23T07:15:29.696Z,97027.34
2023-04-23T07:17:57.272Z,97029.44
2023-04-23T07:20:24.857Z,97034.22
2023-04-23T07:22:52.810Z,97024.28
2023-04-23T07:25:22.427Z,97029.22
2023-04-23T07:27:49.911Z,97029.63
2023-04-23T07:30:17.735Z,97033.72
2023-04-23T07:32:45.256Z,97024.63
2023-04-23T07:35:13.030Z,97030.16
2023-04-23T07:37:40.681Z,97022.88
2023-04-23T07:40:09.356Z,97023.41
2023-04-23T07:42:36.845Z,97021.28
2023-04-23T07:45:05.843Z,97015.59
2023-04-23T07:47:33.507Z,97016.59
2023-04-23T07:50:01.129Z,97008.81
2023-04-23T07:52:28.629Z,97011.63
2023-04-23T07:54:56.254Z,97008.34
2023-04-23T07:57:24.141Z,97013.81
2023-04-23T07:59:51.798Z,97006.22
2023-04-23T08:02:23.586Z,97011.09
2023-04-23T08:04:51.378Z,97002.94
2023-04-23T08:07:19.337Z,96996.84
2023-04-23T08:09:47.386Z,97001.22
2023-04-23T08:12:17.135Z,96992.59
2023-04-23T08:14:47.216Z,96986.25
2023-04-23T08:17:17.388Z,96988.22
2023-04-23T08:19:44.887Z,96980.72
2023-04-23T08:22:13.461Z,96981.03
2023-04-23T08:24:41.084Z,96976.88
2023-04-23T08:27:08.642Z,96982.56
2023-04-23T08:29:36.285Z,96981.06
2023-04-23T08:32:03.996Z,96971.41
2023-04-23T08:34:31.489Z,96971.41
2023-04-23T08:36:58.978Z,96972.22
2023-04-23T08:39:27.938Z,96976.56
2023-04-23T08:41:56.177Z,96975.31
2023-04-23T08:44:26.187Z,96975.41
2023-04-23T08:46:54.778Z,96973.44
2023-04-23T08:49:22.297Z,96968.78
2023-04-23T08:51:53.310Z,96967.19
2023-04-23T08:54:28.351Z,96966.28
2023-04-23T08:57:00.774Z,96969.53
2023-04-23T08:59:34.173Z,96964.41
2023-04-23T09:02:07.951Z,96961.19
2023-04-23T09:04:36.977Z,96961.69
2023-04-23T09:07:07.963Z,96961.09
2023-04-23T09:09:36.647Z,96960.25
2023-04-23T09:12:06.881Z,96957.72
2023-04-23T09:14:35.628Z,96957.03
2023-04-23T09:17:03.897Z,96949.91
2023-04-23T09:19:31.635Z,96954.16
2023-04-23T09:22:01.999Z,96941.19
2023-04-23T09:24:30.112Z,96944.97
2023-04-23T09:26:58.758Z,96934.47
2023-04-23T09:29:26.800Z,96933.75
2023-04-23T09:31:56.700Z,96932.69
2023-04-23T09:34:25.456Z,96933.88
2023-04-23T09:36:53.787Z,96931.53
2023-04-23T09:39:24.631Z,96927.91
2023-04-23T09:41:53.760Z,96908.31
2023-04-23T09:44:23.146Z,96904.56
2023-04-23T09:46:51.077Z,96902.78
2023-04-23T09:49:18.863Z,96910.44
2023-04-23T09:51:48.800Z,96904.22
2023-04-23T09:54:22.668Z,96903.28
2023-04-23T09:57:04.034Z,96905.25
2023-04-23T09:59:47.014Z,96902.19
2023-04-23T10:02:18.794Z,96900.44
2023-04-23T10:04:52.328Z,96884.38
2023-04-23T10:07:23.017Z,96886.50
2023-04-23T10:09:50.498Z,96882.16
2023-04-23T10:12:41.111Z,96875.47
2023-04-23T10:15:09.583Z,96875.81
2023-04-23T10:17:38.059Z,96869.34
2023-04-23T10:20:10.248Z,96872.06
2023-04-23T10:22:39.375Z,96873.47
2023-04-23T10:25:11.761Z,96869.13
2023-04-23T10:27:52.697Z,96871.84
2023-04-23T10:30:22.433Z,96863.84
2023-04-23T10:32:51.175Z,96855.63
2023-04-23T10:35:18.956Z,96860.53
2023-04-23T10:37:48.405Z,96843.16
2023-04-23T10:40:27.742Z,96854.28
2023-04-23T10:42:55.897Z,96848.50
2023-04-23T10:45:25.186Z,96850.22
2023-04-23T10:47:55.926Z,96847.69
2023-04-23T10:50:29.600Z,96837.00
2023-04-23T10:52:58.113Z,96842.44
2023-04-23T10:55:28.741Z,96837.34
2023-04-23T10:58:07.512Z,96834.53
2023-04-23T11:00:46.308Z,96823.31
2023-04-23T11:03:44.122Z,96820.88
2023-04-23T11:06:43.251Z,96814.94
2023-04-23T11:09:54.063Z,96817.34
2023-04-23T11:12:24.182Z,96819.38
2023-04-23T11:14:54.737Z,96805.28
2023-04-23T11:17:47.326Z,96818.31
2023-04-23T11:20:20.760Z,96811.44
2023-04-23T11:22:50.550Z,96813.22
2023-04-23T11:25:27.672Z,96802.28
2023-04-23T11:28:00.534Z,96791.78
2023-04-23T11:30:30.053Z,96797.00
2023-04-23T11:32:59.980Z,96786.75
2023-04-23T11:35:29.417Z,96776.25
2023-04-23T11:37:57.164Z,96775.25
2023-04-23T11:40:25.980Z,96772.94
2023-04-23T11:42:57.443Z,96769.06
2023-04-23T11:45:28.278Z,96766.91
2023-04-23T11:47:58.280Z,96758.28
2023-04-23T11:50:33.092Z,96757.53
2023-04-23T11:53:11.407Z,96748.22
2023-04-23T11:55:43.697Z,96741.78
2023-04-23T11:58:11.364Z,96736.69
2023-04-23T12:00:38.900Z,96735.59
2023-04-23T12:03:06.907Z,96735.81
2023-04-23T12:05:39.286Z,96729.84
2023-04-23T12:08:21.011Z,96728.16
2023-04-23T12:11:00.761Z,96717.91
2023-04-23T12:13:32.055Z,96716.94
2023-04-23T12:16:02.612Z,96708.69
2023-04-23T12:18:32.523Z,96710.38
2023-04-23T12:21:06.910Z,96699.25
2023-04-23T12:23:36.189Z,96693.78
2023-04-23T12:26:04.532Z,96686.31
2023-04-23T12:28:32.076Z,96681.91
2023-04-23T12:31:02.029Z,96680.09
2023-04-23T12:33:31.061Z,96676.38
2023-04-23T12:35:59.807Z,96687.34
2023-04-23T12:38:29.880Z,96680.19
2023-04-23T12:41:01.841Z,96672.63
2023-04-23T12:43:29.351Z,96671.28
2023-04-23T12:45:56.935Z,96679.13
2023-04-23T12:48:24.502Z,96660.94
2023-04-23T12:50:51.995Z,96664.50
2023-04-23T12:53:19.540Z,96648.56
2023-04-23T12:55:48.345Z,96655.09
2023-04-23T12:58:15.891Z,96645.25
2023-04-23T13:00:43.414Z,96650.41
2023-04-23T13:03:12.697Z,96645.75
2023-04-23T13:05:40.289Z,96630.00
2023-04-23T13:08:07.825Z,96639.75
2023-04-23T13:10:35.367Z,96622.91
2023-04-23T13:13:02.857Z,96622.38
2023-04-23T13:15:30.444Z,96621.22
2023-04-23T13:17:57.937Z,96613.56
2023-04-23T13:20:26.139Z,96609.41
2023-04-23T13:22:53.611Z,96600.78
2023-04-23T13:25:21.106Z,96607.41
2023-04-23T13:27:48.642Z,96599.56
2023-04-23T13:30:16.236Z,96586.84
2023-04-23T13:32:43.736Z,96587.19
2023-04-23T13:35:11.823Z,96575.28
2023-04-23T13:37:41.057Z,96560.13
2023-04-23T13:40:09.118Z,96566.69
2023-04-23T13:42:36.571Z,96560.16
2023-04-23T13:45:06.123Z,96546.06
2023-04-23T13:47:34.801Z,96553.94
2023-04-23T13:50:06.822Z,96533.53
2023-04-23T13:52:37.193Z,96531.88
2023-04-23T13:55:07.437Z,96527.47
2023-04-23T13:57:34.938Z,96527.41
2023-04-23T14:00:02.534Z,96511.28
2023-04-23T14:02:32.004Z,96520.19
2023-04-23T14:04:59.640Z,96511.47
2023-04-23T14:07:27.111Z,96517.47
2023-04-23T14:09:54.604Z,96505.91
2023-04-23T14:12:23.893Z,96515.44
2023-04-23T14:14:51.442Z,96505.38
2023-04-23T14:17:18.942Z,96500.47
2023-04-23T14:19:47.193Z,96495.03
2023-04-23T14:22:14.916Z,96498.13
2023-04-23T14:25:02.984Z,96490.09
2023-04-23T14:27:39.553Z,96499.31
2023-04-23T14:30:16.946Z,96495.97
2023-04-23T14:32:47.570Z,96484.56
2023-04-23T14:35:17.353Z,96495.91
2023-04-23T14:37:45.612Z,96488.88
2023-04-23T14:40:15.769Z,96480.28
2023-04-23T14:42:45.473Z,96465.03
2023-04-23T14:45:14.023Z,96471.53
2023-04-23T14:47:47.763Z,96476.47
2023-04-23T14:50:16.624Z,96480.53
2023-04-23T14:52:48.888Z,96472.69
2023-04-23T14:55:19.334Z,96466.16
2023-04-23T14:57:46.879Z,96460.47
2023-04-23T15:00:15.544Z,96463.47
2023-04-23T15:02:46.550Z,96458.59
2023-04-23T15:05:16.474Z,96457.22
2023-04-23T15:07:44.084Z,96455.06
2023-04-23T15:10:12.149Z,96456.66
2023-04-23T15:13:42.290Z,96448.78
2023-04-23T15:16:46.910Z,96446.59
2023-04-23T15:19:17.745Z,96450.97
2023-04-23T15:21:46.616Z,96443.38
2023-04-23T15:24:15.621Z,96446.91
2023-04-23T15:26:45.665Z,96444.47
2023-04-23T15:29:13.580Z,96440.38
2023-04-23T15:31:41.974Z,96437.94
2023-04-23T15:34:11.433Z,96442.00
2023-04-23T15:36:39.076Z,96439.84
2023-04-23T15:39:07.525Z,96431.41
2023-04-23T15:41:39.553Z,96429.53
2023-04-23T15:44:14.056Z,96437.94
2023-04-23T15:46:41.558Z,96438.75
2023-04-23T15:49:09.123Z,96440.66
2023-04-23T15:51:37.473Z,96437.66
2023-04-23T15:54:08.036Z,96436.03
2023-04-23T15:56:36.564Z,96435.78
2023-04-23T15:59:04.137Z,96427.09
2023-04-23T16:01:31.770Z,96433.59
2023-04-23T16:04:09.289Z,96434.69
2023-04-23T16:06:38.206Z,96432.00
2023-04-23T16:09:08.329Z,96441.47
2023-04-23T16:11:37.452Z,96432.78
2023-04-23T16:14:06.877Z,96442.53
2023-04-23T16:16:34.528Z,96440.88
2023-04-23T16:19:02.858Z,96443.59
2023-04-23T16:21:31.963Z,96449.81
2023-04-23T16:23:59.578Z,96469.06
2023-04-23T16:26:28.918Z,96470.66
2023-04-23T16:29:16.474Z,96487.16
2023-04-23T16:31:44.991Z,96507.47
2023-04-23T16:34:12.560Z,96531.28
2023-04-23T16:36:40.158Z,96527.03
2023-04-23T16:39:07.626Z,96535.56
2023-04-23T16:41:35.132Z,96543.81
2023-04-23T16:44:02.668Z,96531.63
2023-04-23T16:46:31.941Z,96524.06
2023-04-23T16:48:59.816Z,96527.16
2023-04-23T16:51:28.353Z,96515.66
2023-04-23T16:53:57.000Z,96529.81
2023-04-23T16:56:24.701Z,96535.25
2023-04-23T16:58:52.346Z,96522.78
2023-04-23T17:01:19.941Z,96528.88
2023-04-23T17:03:47.592Z,96550.94
2023-04-23T17:06:24.553Z,96547.34
2023-04-23T17:08:52.134Z,96540.53
2023-04-23T17:11:19.786Z,96542.09
2023-04-23T17:13:47.525Z,96524.00
2023-04-23T17:16:15.201Z,96516.41
2023-04-23T17:18:42.741Z,96524.34
2023-04-23T17:21:13.276Z,96520.41
2023-04-23T17:23:40.819Z,96526.34
2023-04-23T17:26:08.333Z,96530.91
2023-04-23T17:28:35.900Z,96530.56
2023-04-23T17:31:03.850Z,96523.50
2023-04-23T17:33:31.566Z,96532.75
2023-04-23T17:35:59.328Z,96527.38
2023-04-23T17:38:28.006Z,96527.47
2023-04-23T17:40:55.816Z,96530.06
2023-04-23T17:43:23.391Z,96513.31
2023-04-23T17:45:51.173Z,96526.31
2023-04-23T17:48:20.762Z,96523.81
2023-04-23T17:50:50.685Z,96519.88
2023-04-23T17:53:18.469Z,96515.53
2023-04-23T17:55:46.297Z,96522.81
2023-04-23T17:58:13.806Z,96526.56
2023-04-23T18:00:42.834Z,96526.22
2023-04-23T18:03:14.475Z,96527.22
2023-04-23T18:05:42.551Z,96522.63
2023-04-23T18:08:10.144Z,96526.28
2023-04-23T18:10:37.847Z,96526.50
2023-04-23T18:13:08.920Z,96530.72
2023-04-23T18:15:36.621Z,96535.75
2023-04-23T18:18:04.454Z,96535.31
2023-04-23T18:20:34.979Z,96528.63
2023-04-23T18:23:02.490Z,96528.63
2023-04-23T18:25:30.310Z,96530.00
2023-04-23T18:27:57.817Z,96538.00
2023-04-23T18:30:25.706Z,96537.50
2023-04-23T18:33:08.743Z,96539.75
2023-04-23T18:35:36.355Z,96544.91
2023-04-23T18:38:11.427Z,96552.84
2023-04-23T18:40:38.969Z,96559.88
2023-04-23T18:43:06.508Z,96563.75
2023-04-23T18:45:34.356Z,96565.59
2023-04-23T18:48:33.701Z,96568.06
2023-04-23T18:51:08.556Z,96568.66
2023-04-23T18:53:38.788Z,96577.53
2023-04-23T18:56:06.388Z,96582.47
2023-04-23T18:58:33.874Z,96580.94
2023-04-23T19:01:01.518Z,96591.13
2023-04-23T19:03:29.634Z,96594.06
2023-04-23T19:05:57.854Z,96604.78
2023-04-23T19:08:28.661Z,96601.41
2023-04-23T19:10:57.165Z,96610.09
2023-04-23T19:13:25.152Z,96619.75
2023-04-23T19:15:52.742Z,96626.84
2023-04-23T19:18:20.490Z,96617.13
2023-04-23T19:20:48.724Z,96613.94
2023-04-23T19:23:16.209Z,96616.13
2023-04-23T19:25:43.829Z,96620.97
2023-04-23T19:28:11.353Z,96612.59
2023-04-23T19:30:38.935Z,96624.75
2023-04-23T19:33:06.558Z,96623.72
2023-04-23T19:35:34.088Z,96626.34
2023-04-23T19:38:01.632Z,96636.47
2023-04-23T19:40:29.154Z,96636.75
2023-04-23T19:42:56.631Z,96646.16
2023-04-23T19:45:24.631Z,96627.28
2023-04-23T19:47:52.561Z,96619.38
2023-04-23T19:50:20.585Z,96623.16
2023-04-23T19:52:48.317Z,96628.56
2023-04-23T19:55:18.134Z,96624.84
2023-04-23T19:57:46.059Z,96623.44
2023-04-23T20:00:14.346Z,96626.03
2023-04-23T20:02:42.127Z,96618.34
2023-04-23T20:05:12.805Z,96605.47
2023-04-23T20:07:40.388Z,96608.75
2023-04-23T20:10:08.526Z,96603.38
2023-04-23T20:12:36.140Z,96607.09
2023-04-23T20:15:13.174Z,96593.44
2023-04-23T20:17:40.777Z,96598.22
2023-04-23T20:20:10.907Z,96587.94
2023-04-23T20:22:38.646Z,96603.72
2023-04-23T20:25:07.084Z,96601.03
2023-04-23T20:27:34.782Z,96613.41
2023-04-23T20:30:04.683Z,96614.47
2023-04-23T20:32:32.185Z,96618.78
2023-04-23T20:35:00.160Z,96628.13
2023-04-23T20:37:28.400Z,96636.31
2023-04-23T20:39:55.958Z,96627.50
2023-04-23T20:42:25.439Z,96628.47
2023-04-23T20:44:52.923Z,96626.75
2023-04-23T20:47:20.617Z,96628.25
2023-04-23T20:49:48.172Z,96632.22
2023-04-23T20:52:15.735Z,96628.03
2023-04-23T20:54:45.089Z,96616.31
2023-04-23T20:57:12.715Z,96619.81
2023-04-23T20:59:41.696Z,96618.19
2023-04-23T21:02:12.862Z,96622.13
2023-04-23T21:04:41.171Z,96632.25
2023-04-23T21:07:08.874Z,96635.16
2023-04-23T21:09:36.409Z,96637.72
2023-04-23T21:12:04.015Z,96639.88
2023-04-23T21:14:33.910Z,96637.66
2023-04-23T21:17:01.467Z,96639.50
2023-04-23T21:19:28.996Z,96641.84
2023-04-23T21:21:56.494Z,96639.38
2023-04-23T21:24:23.995Z,96642.69
2023-04-23T21:26:51.614Z,96641.06
2023-04-23T21:29:19.149Z,96632.94
2023-04-23T21:31:48.497Z,96624.88
2023-04-23T21:34:16.161Z,96623.22
2023-04-23T21:36:46.643Z,96620.47
2023-04-23T21:39:14.173Z,96623.16
2023-04-23T21:41:42.097Z,96625.81
2023-04-23T21:44:09.577Z,96623.31
2023-04-23T21:46:37.122Z,96628.28
2023-04-23T21:49:04.912Z,96626.03
2023-04-23T21:51:36.714Z,96623.34
2023-04-23T21:54:05.735Z,96625.53
2023-04-23T21:56:34.048Z,96631.19
2023-04-23T21:59:02.264Z,96635.78
2023-04-23T22:01:30.030Z,96632.13
2023-04-23T22:03:58.801Z,96635.00
2023-04-23T22:06:27.584Z,96636.94
2023-04-23T22:08:56.687Z,96625.44
2023-04-23T22:11:24.268Z,96625.44
2023-04-23T22:13:51.744Z,96628.59
2023-04-23T22:16:28.140Z,96633.94
2023-04-23T22:19:00.359Z,96629.47
2023-04-23T22:21:28.218Z,96634.38
2023-04-23T22:23:55.988Z,96638.09
2023-04-23T22:26:23.604Z,96633.34
2023-04-23T22:28:51.082Z,96622.66
2023-04-23T22:31:18.679Z,96628.25
2023-04-23T22:33:46.335Z,96633.63
2023-04-23T22:36:14.121Z,96641.69
2023-04-23T22:38:41.949Z,96620.25
2023-04-23T22:41:09.446Z,96624.59
2023-04-23T22:43:36.913Z,96622.72
2023-04-23T22:46:04.630Z,96613.59
2023-04-23T22:48:32.218Z,96609.50
2023-04-23T22:50:59.712Z,96609.50
2023-04-23T22:53:27.195Z,96611.41
2023-04-23T22:55:54.867Z,96618.63
2023-04-23T22:58:22.375Z,96619.03
2023-04-23T23:00:50.118Z,96616.16
2023-04-23T23:03:17.688Z,96619.03
2023-04-23T23:05:45.226Z,96613.06
2023-04-23T23:08:12.793Z,96611.41
2023-04-23T23:10:40.365Z,96610.19
2023-04-23T23:13:07.836Z,96606.88
2023-04-23T23:15:35.373Z,96607.31
2023-04-23T23:18:02.923Z,96614.53
2023-04-23T23:20:30.820Z,96611.88
2023-04-23T23:22:58.369Z,96609.00
2023-04-23T23:25:25.913Z,96612.13
2023-04-23T23:27:53.404Z,96614.19
2023-04-23T23:30:21.011Z,96608.66
2023-04-23T23:32:48.686Z,96601.22
2023-04-23T23:35:16.282Z,96604.13
2023-04-23T23:37:43.772Z,96597.28
2023-04-23T23:40:11.732Z,96591.28
2023-04-23T23:42:39.279Z,96596.66
2023-04-23T23:45:07.642Z,96600.13
2023-04-23T23:47:35.196Z,96585.75
2023-04-23T23:50:03.307Z,96588.00
2023-04-23T23:52:30.900Z,96585.69
2023-04-23T23:54:58.404Z,96590.63
2023-04-23T23:57:25.996Z,96581.09
2023-04-23T23:59:53.504Z,96589.31
